Time;durP1;ratioP1;P1;durP2;ratioP2;P2;SDS_P1;SDS_P2;PMS_P1;PMS_P2;Temp;Humidity;BMP_temperature;BMP_pressure;BME280_temperature;BME280_humidity;BME280_pressure;Samples;Min_cycle;Max_cycle;Signal;HPM_P1;HPM_P2
2023/10/03 00:01:06;;;;;;;8.38;5.68;;;;;;;24.24;52.15;101818.78;5027067;28;20075;-60
2023/10/03 00:03:33;;;;;;;9.20;6.82;;;;;;;24.25;52.04;101814.22;5025295;28;20079;-59
2023/10/03 00:06:01;;;;;;;8.68;6.70;;;;;;;24.25;52.45;101817.78;5028558;28;20053;-59
2023/10/03 00:08:29;;;;;;;8.18;6.50;;;;;;;24.25;52.18;101816.94;5028854;28;20484;-62
2023/10/03 00:10:56;;;;;;;9.85;6.65;;;;;;;24.25;52.02;101816.94;5027412;28;20484;-59
2023/10/03 00:13:25;;;;;;;8.10;6.47;;;;;;;24.26;52.08;101824.06;5026549;28;20519;-59
2023/10/03 00:15:52;;;;;;;10.38;7.07;;;;;;;24.25;52.21;101816.94;5028666;28;20042;-59
2023/10/03 00:18:19;;;;;;;8.55;7.50;;;;;;;24.26;52.37;101813.22;5028845;28;20416;-59
2023/10/03 00:20:47;;;;;;;9.43;6.93;;;;;;;24.25;52.29;101808.81;5026535;28;20058;-63
2023/10/03 00:23:15;;;;;;;6.90;6.20;;;;;;;24.25;52.14;101806.09;5025119;28;20061;-63
2023/10/03 00:25:42;;;;;;;9.93;6.53;;;;;;;24.26;52.33;101810.53;5033426;28;20042;-63
2023/10/03 00:28:10;;;;;;;8.07;6.22;;;;;;;24.25;51.97;101814.22;5033132;28;20061;-63
2023/10/03 00:30:40;;;;;;;7.10;6.28;;;;;;;24.25;51.88;101809.66;5033336;28;20056;-62
2023/10/03 00:33:12;;;;;;;7.10;6.40;;;;;;;24.25;51.91;101803.41;5033166;28;20068;-63
2023/10/03 00:35:41;;;;;;;8.98;6.40;;;;;;;24.25;52.13;101800.69;5032000;28;20060;-63
2023/10/03 00:38:13;;;;;;;8.68;6.95;;;;;;;24.25;52.28;101798.84;5032169;28;20053;-63
2023/10/03 00:40:48;;;;;;;;;;;;;;;24.23;52.13;101789.19;5029528;28;20049;-62
2023/10/03 00:43:16;;;;;;;8.77;6.93;;;;;;;24.24;52.21;101796.28;5027177;28;19940;-63
2023/10/03 00:45:45;;;;;;;8.73;6.57;;;;;;;24.25;51.98;101789.88;5033281;28;20415;-63
2023/10/03 00:48:13;;;;;;;7.45;6.70;;;;;;;24.25;52.15;101787.16;5033224;28;20052;-63
2023/10/03 00:50:44;;;;;;;7.68;6.40;;;;;;;24.26;52.29;101788.88;5032261;28;20408;-59
2023/10/03 00:53:13;;;;;;;7.50;6.32;;;;;;;24.25;52.07;101787.16;5033326;28;20050;-59
2023/10/03 00:55:47;;;;;;;7.70;6.43;;;;;;;24.25;51.89;101787.16;5031170;28;20049;-59
2023/10/03 00:58:27;;;;;;;8.77;6.25;;;;;;;24.25;52.17;101788.03;5025590;28;20053;-60
2023/10/03 01:00:57;;;;;;;7.80;6.50;;;;;;;24.25;52.12;101792.59;5021841;28;20052;-60
2023/10/03 01:03:38;;;;;;;7.28;6.57;;;;;;;24.24;51.95;101786.31;5028176;28;20057;-59
2023/10/03 01:06:09;;;;;;;9.73;6.20;;;;;;;24.25;51.93;101781.75;5026258;28;20048;-59
2023/10/03 01:08:43;;;;;;;8.05;6.65;;;;;;;24.26;51.93;101778.03;5025481;28;20464;-62
2023/10/03 01:11:18;;;;;;;7.78;6.55;;;;;;;24.25;52.05;101776.34;5028351;28;20049;-63
2023/10/03 01:13:49;;;;;;;8.07;6.47;;;;;;;24.26;52.21;101772.63;5027298;28;20056;-63
2023/10/03 01:16:33;;;;;;;8.18;6.18;;;;;;;24.25;52.08;101768.22;5025357;28;20046;-63
2023/10/03 01:19:15;;;;;;;7.65;6.78;;;;;;;24.25;52.29;101769.06;5028181;28;20060;-63
2023/10/03 01:21:46;;;;;;;7.30;6.22;;;;;;;24.23;52.03;101767.53;5025896;28;20053;-63
2023/10/03 01:24:20;;;;;;;7.82;6.38;;;;;;;24.26;52.00;101761.81;5029797;28;20053;-63
2023/10/03 01:26:48;;;;;;;7.88;6.90;;;;;;;24.24;52.08;101759.25;5033005;28;20506;-63
2023/10/03 01:29:16;;;;;;;7.95;6.95;;;;;;;24.26;52.03;101761.81;5036397;28;20428;-59
2023/10/03 01:31:43;;;;;;;8.18;6.68;;;;;;;24.24;52.15;101751.13;5027648;28;20061;-59
2023/10/03 01:34:12;;;;;;;7.93;6.45;;;;;;;24.24;52.00;101753.84;5030716;28;20049;-59
2023/10/03 01:36:40;;;;;;;8.25;6.40;;;;;;;24.24;51.85;101753.00;5030456;28;20046;-60
2023/10/03 01:39:08;;;;;;;7.25;6.55;;;;;;;24.24;52.04;101753.00;5031548;28;20526;-59
2023/10/03 01:41:35;;;;;;;7.38;6.25;;;;;;;24.25;52.05;101749.28;5028449;28;20049;-59
2023/10/03 01:44:03;;;;;;;6.85;6.15;;;;;;;24.25;52.05;101749.28;5030651;28;20057;-59
2023/10/03 01:46:30;;;;;;;6.95;6.25;;;;;;;24.24;52.26;101736.75;5030087;28;20049;-60
2023/10/03 01:48:58;;;;;;;6.93;6.18;;;;;;;24.24;51.94;101740.31;5031669;28;20056;-59
2023/10/03 01:51:26;;;;;;;7.28;6.30;;;;;;;24.25;52.09;101736.59;5027801;28;20057;-59
2023/10/03 01:53:57;;;;;;;8.55;6.85;;;;;;;24.25;52.26;101736.59;5028874;28;20053;-59
2023/10/03 01:56:25;;;;;;;6.82;5.90;;;;;;;24.26;51.88;101741.00;5035886;28;20041;-59
2023/10/03 01:58:54;;;;;;;6.93;6.30;;;;;;;24.27;52.06;101731.06;5034859;28;20053;-62
2023/10/03 02:01:23;;;;;;;6.45;5.75;;;;;;;24.26;51.86;101735.59;5030388;28;20053;-63
2023/10/03 02:03:51;;;;;;;7.95;6.38;;;;;;;24.26;52.23;101730.19;5024413;28;20057;-63
2023/10/03 02:06:20;;;;;;;6.20;5.53;;;;;;;24.26;51.93;101729.34;5029706;28;20057;-63
2023/10/03 02:08:47;;;;;;;7.13;6.43;;;;;;;24.25;52.02;101728.50;5028966;28;20045;-62
2023/10/03 02:11:15;;;;;;;7.07;6.22;;;;;;;24.26;52.16;101729.34;5025902;28;20058;-63
2023/10/03 02:13:45;;;;;;;7.70;6.60;;;;;;;24.25;52.09;101725.78;5030073;28;20056;-63
2023/10/03 02:16:17;;;;;;;7.13;6.53;;;;;;;24.26;52.05;101710.41;5031013;28;20052;-63
2023/10/03 02:18:45;;;;;;;8.82;6.78;;;;;;;24.25;52.29;101716.81;5027655;28;20053;-62
2023/10/03 02:21:16;;;;;;;7.38;6.45;;;;;;;24.25;52.08;101706.00;5023204;28;20118;-63
2023/10/03 02:23:45;;;;;;;6.53;5.90;;;;;;;24.25;51.83;101706.00;5030809;28;20049;-64
2023/10/03 02:26:13;;;;;;;7.28;5.78;;;;;;;24.25;52.19;101706.00;5029791;28;20042;-63
2023/10/03 02:28:40;;;;;;;7.53;6.75;;;;;;;24.24;52.24;101710.56;5034000;28;20049;-60
2023/10/03 02:31:08;;;;;;;7.68;6.95;;;;;;;24.24;51.90;101704.28;5035459;28;20484;-60
2023/10/03 02:33:40;;;;;;;7.35;6.65;;;;;;;24.25;51.84;101706.84;5035148;28;20492;-60
2023/10/03 02:36:09;;;;;;;6.90;6.05;;;;;;;24.25;52.08;101706.00;5035149;28;20514;-59
2023/10/03 02:38:37;;;;;;;6.82;6.10;;;;;;;24.24;51.92;101702.44;5034896;28;20068;-62
2023/10/03 02:41:10;;;;;;;6.95;6.25;;;;;;;24.24;51.81;101701.59;5033766;28;20057;-63
2023/10/03 02:43:42;;;;;;;7.60;6.68;;;;;;;24.24;51.99;101702.44;5034025;28;20500;-63
2023/10/03 02:46:14;;;;;;;7.07;6.25;;;;;;;24.24;52.15;101693.47;5017665;28;20053;-63
2023/10/03 02:48:48;;;;;;;6.57;5.88;;;;;;;24.24;51.91;101691.63;5033799;28;20112;-62
2023/10/03 02:51:16;;;;;;;7.40;5.75;;;;;;;24.25;52.15;101692.47;5033059;28;20065;-64
2023/10/03 02:53:44;;;;;;;7.78;6.28;;;;;;;24.23;51.90;101694.47;5028381;28;20072;-63
2023/10/03 02:56:14;;;;;;;7.90;7.10;;;;;;;24.23;52.16;101689.91;5030268;28;20037;-63
2023/10/03 02:58:43;;;;;;;6.60;5.97;;;;;;;24.22;51.92;101687.34;5029225;28;20056;-62
2023/10/03 03:01:11;;;;;;;7.15;6.40;;;;;;;24.23;52.04;101691.78;5028362;28;20060;-63
2023/10/03 03:03:39;;;;;;;9.48;5.88;;;;;;;24.23;52.23;101689.06;5028503;28;20051;-63
2023/10/03 03:06:11;;;;;;;6.97;6.28;;;;;;;24.23;52.21;101689.06;5025485;28;20050;-63
2023/10/03 03:08:44;;;;;;;;;;;;;;;24.20;51.90;101679.38;5028665;28;20057;-60
2023/10/03 03:11:15;;;;;;;6.63;6.03;;;;;;;24.22;51.84;101682.78;5028592;28;20283;-59
2023/10/03 03:13:42;;;;;;;6.47;5.75;;;;;;;24.23;51.94;101675.53;5028770;28;20419;-59
2023/10/03 03:16:12;;;;;;;6.28;5.68;;;;;;;24.23;52.10;101668.28;5026114;28;20041;-60
2023/10/03 03:18:40;;;;;;;8.30;6.22;;;;;;;24.22;52.19;101665.69;5030210;28;20050;-57
2023/10/03 03:21:13;;;;;;;8.13;7.32;;;;;;;24.19;51.56;101672.25;5029295;28;20049;-57
2023/10/03 03:23:43;;;;;;;8.18;7.30;;;;;;;24.14;51.69;101669.09;5027827;28;20053;-57
2023/10/03 03:26:20;;;;;;;7.47;6.68;;;;;;;24.11;51.50;101669.41;5032461;28;20389;-57
2023/10/03 03:28:49;;;;;;;7.93;7.13;;;;;;;24.06;51.49;101666.25;5029581;28;20523;-57
2023/10/03 03:31:31;;;;;;;9.05;7.75;;;;;;;24.02;51.40;101664.84;5029348;28;20049;-58
2023/10/03 03:34:00;;;;;;;8.55;7.72;;;;;;;23.96;51.26;101660.00;5027023;28;20053;-57
2023/10/03 03:36:30;;;;;;;7.80;7.00;;;;;;;23.93;51.04;101658.44;5026589;28;20041;-58
2023/10/03 03:38:59;;;;;;;9.57;8.52;;;;;;;23.90;51.02;101653.31;5033807;28;20041;-58
2023/10/03 03:41:29;;;;;;;8.75;7.80;;;;;;;23.86;50.91;101657.28;5026721;28;20041;-57
2023/10/03 03:43:56;;;;;;;8.45;7.28;;;;;;;23.84;51.11;101654.75;5027746;28;20057;-57
2023/10/03 03:46:24;;;;;;;7.82;7.07;;;;;;;23.82;51.06;101663.97;5029092;28;20049;-58
2023/10/03 03:48:52;;;;;;;9.18;7.75;;;;;;;23.80;51.05;101658.72;5029320;28;20049;-57
2023/10/03 03:51:19;;;;;;;8.40;7.40;;;;;;;23.79;51.02;101658.88;5025991;28;20082;-57
2023/10/03 03:53:47;;;;;;;8.90;7.80;;;;;;;23.77;51.06;101658.16;5027741;28;20409;-57
2023/10/03 03:56:16;;;;;;;8.77;7.47;;;;;;;23.75;51.37;101654.75;5028886;28;20049;-57
2023/10/03 03:58:44;;;;;;;8.00;7.20;;;;;;;23.75;51.39;101660.16;5033805;28;20048;-58
2023/10/03 04:01:19;;;;;;;8.57;7.70;;;;;;;23.74;51.28;101653.00;5025709;28;20508;-57
2023/10/03 04:03:51;;;;;;;8.18;7.38;;;;;;;23.71;51.36;101648.75;5028850;28;20049;-57
2023/10/03 04:06:19;;;;;;;8.65;7.75;;;;;;;23.71;51.00;101656.03;5028880;28;20049;-58
2023/10/03 04:08:47;;;;;;;8.68;7.85;;;;;;;23.69;50.96;101650.72;5026598;28;20484;-57
2023/10/03 04:11:35;;;;;;;8.15;7.07;;;;;;;23.68;50.92;101660.69;5028341;28;20411;-57
2023/10/03 04:14:05;;;;;;;9.07;7.50;;;;;;;23.67;51.14;101661.69;5028863;28;20050;-57
2023/10/03 04:16:43;;;;;;;7.82;6.95;;;;;;;23.66;51.08;101660.00;5028625;28;20049;-57
2023/10/03 04:19:12;;;;;;;7.32;6.63;;;;;;;23.66;51.38;101662.72;5030778;28;20058;-58
2023/10/03 04:21:42;;;;;;;7.72;6.88;;;;;;;23.65;50.88;101660.97;5029458;28;20049;-57
2023/10/03 04:24:11;;;;;;;9.63;7.47;;;;;;;23.64;51.03;101661.09;5028605;28;20060;-58
2023/10/03 04:26:42;;;;;;;7.50;6.70;;;;;;;23.62;50.89;101652.28;5033103;28;20053;-58
2023/10/03 04:29:11;;;;;;;8.00;7.15;;;;;;;23.60;50.87;101649.69;5033568;28;20053;-58
2023/10/03 04:31:39;;;;;;;7.97;7.13;;;;;;;23.60;50.76;101652.41;5032155;28;20492;-58
2023/10/03 04:34:09;;;;;;;7.93;6.93;;;;;;;23.58;51.02;101649.00;5033360;28;20045;-58
2023/10/03 04:36:36;;;;;;;9.48;7.40;;;;;;;23.58;51.05;101648.16;5033154;28;20045;-58
2023/10/03 04:39:04;;;;;;;8.85;7.53;;;;;;;23.58;51.17;101642.75;5031917;28;20049;-58
2023/10/03 04:41:34;;;;;;;7.80;7.00;;;;;;;23.56;50.75;101653.69;5032766;28;20053;-58
2023/10/03 04:44:02;;;;;;;8.80;7.35;;;;;;;23.55;51.13;101651.97;5033156;28;20049;-57
2023/10/03 04:46:29;;;;;;;8.27;6.85;;;;;;;23.55;50.80;101654.69;5032948;28;20049;-58
2023/10/03 04:48:57;;;;;;;9.82;7.88;;;;;;;23.54;50.84;101655.69;5033399;28;20049;-57
2023/10/03 04:51:24;;;;;;;8.45;7.53;;;;;;;23.53;50.92;101658.50;5032128;28;20042;-57
2023/10/03 04:53:51;;;;;;;8.55;7.75;;;;;;;23.53;51.17;101656.66;5033176;28;20518;-57
2023/10/03 04:56:19;;;;;;;7.95;7.15;;;;;;;23.54;51.28;101662.94;5027970;28;20049;-57
2023/10/03 04:58:46;;;;;;;8.85;7.85;;;;;;;23.52;50.90;101659.50;5028208;28;20407;-57
2023/10/03 05:01:14;;;;;;;9.20;8.23;;;;;;;23.51;51.33;101672.16;5028373;28;20400;-57
2023/10/03 05:03:42;;;;;;;8.00;7.25;;;;;;;23.50;51.27;101673.16;5030890;28;20046;-57
2023/10/03 05:06:11;;;;;;;9.35;7.82;;;;;;;23.50;51.13;101670.47;5028356;28;20050;-58
2023/10/03 05:08:39;;;;;;;9.05;7.25;;;;;;;23.50;51.05;101673.16;5031551;28;20046;-58
2023/10/03 05:11:06;;;;;;;9.43;8.30;;;;;;;23.50;51.42;101677.69;5032102;28;20404;-57
2023/10/03 05:13:34;;;;;;;8.60;7.80;;;;;;;23.49;51.25;101678.69;5031943;28;20052;-57
2023/10/03 05:16:01;;;;;;;8.73;7.70;;;;;;;23.49;51.04;101676.00;5028426;28;20061;-58
2023/10/03 05:18:30;;;;;;;8.85;7.95;;;;;;;23.48;51.15;101668.88;5031601;28;20037;-57
2023/10/03 05:20:58;;;;;;;9.82;7.75;;;;;;;23.48;50.95;101677.84;5032737;28;20415;-58
2023/10/03 05:23:25;;;;;;;8.73;7.82;;;;;;;23.48;50.66;101677.84;5031769;28;20053;-57
2023/10/03 05:25:53;;;;;;;9.40;7.88;;;;;;;23.47;50.49;101673.44;5028180;28;20046;-58
2023/10/03 05:28:20;;;;;;;7.05;6.35;;;;;;;23.47;50.38;101673.44;5031439;28;20041;-58
2023/10/03 05:30:47;;;;;;;8.02;7.22;;;;;;;23.48;50.30;101677.00;5031939;28;20048;-57
2023/10/03 05:33:15;;;;;;;8.43;7.57;;;;;;;23.48;49.99;101685.09;5031661;28;20049;-57
2023/10/03 05:35:45;;;;;;;9.32;7.32;;;;;;;23.48;49.90;101683.25;5028260;28;20050;-57
2023/10/03 05:38:12;;;;;;;8.52;7.05;;;;;;;23.46;49.86;101685.25;5025822;28;20053;-57
2023/10/03 05:40:40;;;;;;;10.68;7.32;;;;;;;23.45;49.97;101684.38;5031503;28;20049;-57
2023/10/03 05:43:07;;;;;;;8.70;7.07;;;;;;;23.46;49.61;101685.25;5031421;28;20053;-57
2023/10/03 05:45:35;;;;;;;10.23;7.78;;;;;;;23.45;49.93;101683.53;5027973;28;20057;-57
2023/10/03 05:48:04;;;;;;;9.40;8.20;;;;;;;23.45;49.73;101689.78;5025895;28;20044;-57
2023/10/03 05:50:33;;;;;;;8.55;7.68;;;;;;;23.44;49.50;101695.34;5031522;28;20041;-57
2023/10/03 05:53:01;;;;;;;9.40;7.70;;;;;;;23.44;49.69;101690.78;5030546;28;20042;-57
2023/10/03 05:55:29;;;;;;;9.20;7.15;;;;;;;23.45;49.61;101691.63;5027873;28;20050;-57
2023/10/03 05:57:56;;;;;;;10.10;7.30;;;;;;;23.45;49.26;101686.22;5031430;28;20048;-58
2023/10/03 06:00:24;;;;;;;10.57;7.80;;;;;;;23.44;49.33;101692.63;5036146;28;20045;-58
2023/10/03 06:02:51;;;;;;;10.13;7.28;;;;;;;23.43;49.52;101704.44;5035812;28;20045;-58
2023/10/03 06:05:22;;;;;;;8.15;7.32;;;;;;;23.44;49.38;101701.59;5031295;28;20056;-58
2023/10/03 06:07:49;;;;;;;9.00;8.10;;;;;;;23.45;49.25;101705.13;5035684;28;20042;-58
2023/10/03 06:10:17;;;;;;;9.45;7.85;;;;;;;23.46;49.12;101706.88;5035736;28;20067;-58
2023/10/03 06:12:45;;;;;;;8.13;7.22;;;;;;;23.48;49.38;101699.47;5035349;28;20049;-58
2023/10/03 06:15:12;;;;;;;8.32;7.18;;;;;;;23.50;49.47;101700.19;5035351;28;20510;-58
2023/10/03 06:17:42;;;;;;;9.77;6.70;;;;;;;23.53;49.28;101707.16;5035464;28;20052;-58
2023/10/03 06:20:14;;;;;;;9.02;7.03;;;;;;;23.56;49.46;101709.59;5035632;28;20404;-58
2023/10/03 06:22:43;;;;;;;9.80;6.93;;;;;;;23.57;49.47;101706.75;5035467;28;20045;-58
2023/10/03 06:25:10;;;;;;;11.38;7.22;;;;;;;23.59;49.25;101714.72;5035304;28;20049;-58
2023/10/03 06:27:38;;;;;;;10.10;7.10;;;;;;;23.61;49.26;101715.44;5035349;28;20496;-58
2023/10/03 06:30:07;;;;;;;8.00;6.57;;;;;;;23.61;48.86;101718.13;5035283;28;20048;-58
2023/10/03 06:32:35;;;;;;;8.77;6.40;;;;;;;23.65;49.00;101706.03;5034748;28;20238;-58
2023/10/03 06:35:05;;;;;;;9.85;7.22;;;;;;;23.66;48.96;101716.78;5034950;28;20060;-58
2023/10/03 06:37:33;;;;;;;10.75;7.00;;;;;;;23.68;48.61;101719.31;5035076;28;20050;-58
2023/10/03 06:40:06;;;;;;;10.68;6.70;;;;;;;23.70;48.84;101722.75;5035107;28;20041;-57
2023/10/03 06:42:35;;;;;;;8.50;5.95;;;;;;;23.71;48.98;101718.19;5030727;28;20056;-57
2023/10/03 06:45:03;;;;;;;10.13;7.00;;;;;;;23.75;48.84;101722.34;5034785;28;20050;-57
2023/10/03 06:47:33;;;;;;;7.05;6.32;;;;;;;23.76;48.89;101721.34;5035038;28;20045;-57
2023/10/03 06:50:04;;;;;;;9.48;6.18;;;;;;;23.77;49.14;101726.59;5034738;28;20415;-58
2023/10/03 06:52:33;;;;;;;8.02;6.45;;;;;;;23.79;48.87;101726.47;5030009;28;20054;-58
2023/10/03 06:55:03;;;;;;;7.38;6.13;;;;;;;23.79;48.99;101715.66;5034738;28;20385;-58
2023/10/03 06:57:32;;;;;;;9.32;6.50;;;;;;;23.80;48.78;101728.16;5034685;28;20412;-58
2023/10/03 07:00:00;;;;;;;9.38;6.63;;;;;;;23.81;48.88;101724.47;5033189;28;20052;-57
2023/10/03 07:02:27;;;;;;;7.70;5.90;;;;;;;23.83;49.01;101714.38;5034772;28;20049;-57
2023/10/03 07:04:55;;;;;;;7.80;5.90;;;;;;;23.86;49.24;101719.47;5034301;28;20046;-57
2023/10/03 07:07:22;;;;;;;8.25;6.38;;;;;;;23.86;49.02;101722.19;5034159;28;20266;-59
2023/10/03 07:09:49;;;;;;;8.07;6.15;;;;;;;23.86;49.37;101727.59;5033918;28;20052;-57
2023/10/03 07:12:17;;;;;;;9.90;6.05;;;;;;;23.83;48.92;101719.78;5031976;28;20046;-61
2023/10/03 07:14:46;;;;;;;6.95;4.97;;;;;;;23.77;48.88;101723.03;5034209;28;20041;-61
2023/10/03 07:17:15;;;;;;;9.73;6.20;;;;;;;23.74;48.63;101724.19;5033934;28;20056;-61
2023/10/03 07:19:48;;;;;;;7.97;5.53;;;;;;;23.75;48.63;101722.34;5031607;28;20049;-61
2023/10/03 07:22:19;;;;;;;7.28;5.43;;;;;;;23.77;48.21;101718.47;5042848;28;20049;-64
2023/10/03 07:24:46;;;;;;;7.40;5.65;;;;;;;23.83;48.42;101717.09;5033449;28;20041;-63
2023/10/03 07:27:15;;;;;;;8.52;6.00;;;;;;;23.86;48.13;101719.47;5032439;28;20041;-62
2023/10/03 07:29:43;;;;;;;7.25;5.55;;;;;;;23.91;48.47;101717.25;5033689;28;20072;-61
2023/10/03 07:32:12;;;;;;;7.50;5.53;;;;;;;23.94;47.95;101719.63;5033951;28;20057;-61
2023/10/03 07:34:45;;;;;;;9.07;5.10;;;;;;;23.98;48.20;101718.34;5033600;28;20049;-61
2023/10/03 07:37:17;;;;;;;8.63;5.95;;;;;;;24.01;48.50;101728.06;5033679;28;20117;-60
2023/10/03 07:39:45;;;;;;;7.43;4.93;;;;;;;24.03;48.48;101720.66;5033443;28;20052;-55
2023/10/03 07:42:14;;;;;;;8.00;5.80;;;;;;;24.04;48.52;101715.09;5033440;28;20288;-58
2023/10/03 07:44:43;;;;;;;7.40;5.60;;;;;;;24.08;48.50;101724.66;5033697;28;20049;-57
2023/10/03 07:47:12;;;;;;;7.07;4.93;;;;;;;24.11;49.13;101723.53;5033337;28;20056;-57
2023/10/03 07:49:42;;;;;;;10.20;5.28;;;;;;;24.12;49.21;101723.38;5032268;28;20045;-60
2023/10/03 07:52:09;;;;;;;7.07;5.30;;;;;;;24.14;48.85;101726.78;5033427;28;20045;-56
2023/10/03 07:54:37;;;;;;;7.30;4.90;;;;;;;24.17;48.67;101725.63;5033072;28;20049;-58
2023/10/03 07:57:05;;;;;;;7.53;5.32;;;;;;;24.17;48.78;101721.09;5033457;28;20042;-57
2023/10/03 07:59:33;;;;;;;9.75;6.15;;;;;;;24.19;48.53;101723.66;5028647;28;20046;-61
2023/10/03 08:02:05;;;;;;;5.93;5.20;;;;;;;24.20;48.72;101727.22;5033217;28;20049;-57
2023/10/03 08:04:33;;;;;;;7.90;5.47;;;;;;;24.21;48.94;101721.66;5028162;28;20406;-59
2023/10/03 08:07:00;;;;;;;5.93;5.25;;;;;;;24.22;48.85;101726.06;5025585;28;20053;-58
2023/10/03 08:09:28;;;;;;;6.68;5.18;;;;;;;24.23;49.04;101724.25;5027097;28;20049;-62
2023/10/03 08:11:57;;;;;;;7.53;5.80;;;;;;;24.25;48.83;101728.50;5032566;28;20057;-62
2023/10/03 08:14:25;;;;;;;8.80;5.93;;;;;;;24.26;48.84;101727.47;5028356;28;20045;-57
2023/10/03 08:16:56;;;;;;;6.38;5.10;;;;;;;24.29;48.81;101727.22;5025212;28;20050;-61
2023/10/03 08:19:26;;;;;;;7.45;5.72;;;;;;;24.30;49.19;101725.34;5027656;28;20056;-61
2023/10/03 08:21:55;;;;;;;8.00;7.20;;;;;;;24.31;48.77;101727.09;5030596;28;20075;-59
2023/10/03 08:24:28;;;;;;;14.30;10.48;;;;;;;24.25;48.54;101719.53;5028173;28;20045;-60
2023/10/03 08:26:59;;;;;;;10.90;8.93;;;;;;;24.21;48.68;101718.94;5032007;28;20417;-60
2023/10/03 08:29:28;;;;;;;11.18;8.52;;;;;;;24.22;48.59;101725.22;5028259;28;20045;-61
2023/10/03 08:31:57;;;;;;;12.02;8.50;;;;;;;24.23;48.59;101727.78;5028657;28;20054;-61
2023/10/03 08:34:26;;;;;;;10.00;7.43;;;;;;;24.25;48.66;101727.63;5025645;28;20053;-59
2023/10/03 08:36:54;;;;;;;9.50;8.10;;;;;;;24.26;48.68;101726.63;5034579;28;20052;-61
2023/10/03 08:39:23;;;;;;;8.63;7.13;;;;;;;24.28;48.71;101724.66;5032416;28;20037;-59
2023/10/03 08:42:12;;;;;;;8.88;6.97;;;;;;;24.31;48.94;101727.09;5031415;28;20041;-60
2023/10/03 08:44:52;;;;;;;8.90;7.03;;;;;;;24.33;48.95;101730.50;5029177;28;20049;-59
2023/10/03 08:47:39;;;;;;;11.57;7.78;;;;;;;24.35;48.84;101728.50;5036791;28;20050;-58
2023/10/03 08:50:11;;;;;;;9.77;8.52;;;;;;;24.35;48.82;101726.66;5030293;28;20049;-62
2023/10/03 08:52:48;;;;;;;10.55;8.45;;;;;;;24.37;48.83;101732.75;5030032;28;20061;-65
2023/10/03 08:55:21;;;;;;;11.05;8.05;;;;;;;24.36;49.13;101727.50;5037261;28;20061;-59
2023/10/03 08:57:49;;;;;;;;;;;;;;;24.32;49.08;101726.94;5036881;28;20049;-59
2023/10/03 09:00:25;;;;;;;11.35;9.00;;;;;;;24.33;49.08;101733.19;5036806;28;19925;-65
2023/10/03 09:03:09;;;;;;;9.57;8.60;;;;;;;24.35;49.44;101728.50;5032606;28;20052;-65
2023/10/03 09:05:40;;;;;;;8.82;7.90;;;;;;;24.37;49.19;101730.06;5031618;28;20053;-61
2023/10/03 09:08:15;;;;;;;11.45;7.85;;;;;;;24.39;49.19;101721.84;5034091;28;20057;-63
2023/10/03 09:10:55;;;;;;;9.23;8.00;;;;;;;24.40;49.45;101713.56;5031683;28;20044;-59
2023/10/03 09:13:23;;;;;;;10.88;8.18;;;;;;;24.42;49.28;101716.13;5035920;28;20045;-62
2023/10/03 09:16:00;;;;;;;8.38;6.70;;;;;;;24.44;49.37;101719.56;5036386;28;20052;-60
2023/10/03 09:18:31;;;;;;;9.27;8.02;;;;;;;24.44;49.35;101722.25;5036251;28;20050;-57
2023/10/03 09:21:04;;;;;;;10.05;8.07;;;;;;;24.44;49.56;101716.00;5036129;28;20049;-57
2023/10/03 09:23:38;;;;;;;10.23;7.45;;;;;;;24.44;49.52;101722.25;5036244;28;20049;-57
2023/10/03 09:26:09;;;;;;;12.50;11.27;;;;;;;24.38;49.54;101712.84;5036090;28;20053;-57
2023/10/03 09:28:36;;;;;;;15.05;13.00;;;;;;;24.33;49.63;101720.50;5033679;28;20064;-63
2023/10/03 09:31:13;;;;;;;11.77;10.52;;;;;;;24.31;49.78;101718.97;5031222;28;20126;-60
2023/10/03 09:33:41;;;;;;;10.63;9.63;;;;;;;24.32;49.78;101716.09;5027441;28;20053;-60
2023/10/03 09:36:08;;;;;;;10.85;9.45;;;;;;;24.34;49.91;101713.25;5031540;28;20053;-62
2023/10/03 09:38:44;;;;;;;11.77;8.68;;;;;;;24.34;49.71;101719.50;5031301;28;20397;-58
2023/10/03 09:41:17;;;;;;;11.63;10.00;;;;;;;24.35;50.10;101712.28;5030062;28;20465;-65
2023/10/03 09:43:49;;;;;;;11.35;9.48;;;;;;;24.36;49.74;101711.25;5028881;28;20054;-69
2023/10/03 09:46:23;;;;;;;9.77;8.83;;;;;;;24.37;50.10;101710.25;5031272;28;20049;-64
2023/10/03 09:48:53;;;;;;;12.35;10.65;;;;;;;24.35;49.91;101710.41;5025312;28;20049;-65
2023/10/03 09:51:36;;;;;;;10.43;9.32;;;;;;;24.35;50.03;101706.84;5027812;28;20408;-57
2023/10/03 09:54:10;;;;;;;12.82;9.88;;;;;;;24.35;50.14;101707.72;5026945;28;20052;-66
2023/10/03 09:56:44;;;;;;;11.20;9.85;;;;;;;24.35;50.31;101702.28;5030771;28;20060;-58
2023/10/03 09:59:17;;;;;;;10.30;9.20;;;;;;;24.37;50.30;101703.00;5032013;28;20053;-66
2023/10/03 10:01:45;;;;;;;11.90;8.70;;;;;;;24.38;50.46;101704.72;5024128;28;20064;-57
2023/10/03 10:04:16;;;;;;;10.48;8.80;;;;;;;24.41;50.27;101695.47;5030947;28;20046;-58
2023/10/03 10:07:16;;;;;;;8.25;7.40;;;;;;;24.44;50.03;101697.03;5030923;28;20049;-61
2023/10/03 10:10:00;;;;;;;8.98;8.07;;;;;;;24.46;50.35;101686.91;5026044;28;20102;-58
2023/10/03 10:12:28;;;;;;;9.77;8.68;;;;;;;24.47;50.24;101692.19;5031005;28;20403;-58
2023/10/03 10:15:13;;;;;;;9.90;8.95;;;;;;;24.46;50.36;101692.31;5025548;28;20061;-57
2023/10/03 10:17:41;;;;;;;10.30;9.13;;;;;;;24.42;50.13;101691.75;5031142;28;20411;-57
2023/10/03 10:20:21;;;;;;;12.05;9.65;;;;;;;24.41;50.08;101690.06;5030125;28;20054;-59
2023/10/03 10:25:41;;;;;;;10.63;8.65;;;;;;;24.38;49.92;101690.34;5031749;28;20049;-65
2023/10/03 10:28:11;;;;;;;;;;;;;;;24.36;49.91;101693.16;5035508;28;20041;-56
2023/10/03 10:31:21;;;;;;;10.40;9.35;;;;;;;24.36;49.53;101687.75;5033448;28;19928;-59
2023/10/03 10:33:50;;;;;;;10.95;9.23;;;;;;;24.36;49.91;101685.03;5034328;28;20064;-63
2023/10/03 10:36:18;;;;;;;12.63;11.32;;;;;;;24.34;49.83;101689.75;5033340;28;20053;-62
2023/10/03 10:38:49;;;;;;;11.18;9.75;;;;;;;24.37;49.99;101677.78;5039278;28;20598;-59
2023/10/03 10:44:16;;;;;;;14.43;11.15;;;;;;;24.41;49.80;101671.13;5032818;28;20045;-54
2023/10/03 10:46:52;;;;;;;11.13;10.02;;;;;;;24.42;49.88;101665.53;5031922;28;20057;-58
2023/10/03 10:49:33;;;;;;;11.00;9.88;;;;;;;24.45;49.84;101666.25;5034498;28;20045;-64
2023/10/03 10:52:02;;;;;;;11.32;9.57;;;;;;;24.46;50.06;101663.41;5034765;28;20045;-60
2023/10/03 10:54:31;;;;;;;11.70;10.50;;;;;;;24.47;49.72;101658.84;5034635;28;20476;-62
2023/10/03 10:57:03;;;;;;;12.23;10.90;;;;;;;24.48;49.96;101658.72;5034411;28;20419;-61
2023/10/03 10:59:32;;;;;;;13.32;11.90;;;;;;;24.49;49.97;101660.41;5028516;28;20053;-62
2023/10/03 11:02:00;;;;;;;12.88;10.73;;;;;;;24.50;50.09;101658.56;5033720;28;20057;-62
2023/10/03 11:04:34;;;;;;;11.50;10.27;;;;;;;24.51;50.08;101653.00;5032506;28;20049;-63
2023/10/03 11:07:02;;;;;;;15.20;9.65;;;;;;;24.53;49.74;101652.84;5034226;28;20049;-63
2023/10/03 11:09:36;;;;;;;10.82;9.57;;;;;;;24.54;50.01;101650.00;5033983;28;20045;-62
2023/10/03 11:12:06;;;;;;;10.45;8.88;;;;;;;24.55;50.13;101645.44;5031047;28;20054;-63
2023/10/03 11:14:34;;;;;;;10.85;8.82;;;;;;;24.57;49.78;101640.72;5028970;28;20041;-64
2023/10/03 11:17:02;;;;;;;9.40;8.18;;;;;;;24.57;49.92;101638.88;5034045;28;20049;-62
2023/10/03 11:19:33;;;;;;;8.23;7.43;;;;;;;24.58;49.88;101634.31;5033778;28;20415;-61
2023/10/03 11:22:01;;;;;;;10.07;8.63;;;;;;;24.60;49.74;101629.63;5034424;28;20052;-60
2023/10/03 11:24:29;;;;;;;10.15;8.40;;;;;;;24.60;49.92;101625.06;5038099;28;20048;-64
2023/10/03 11:26:59;;;;;;;8.88;7.40;;;;;;;24.61;49.96;101615.94;5033920;28;20407;-64
2023/10/03 11:29:46;;;;;;;8.48;7.57;;;;;;;24.63;50.05;101613.94;5033647;28;20049;-63
2023/10/03 11:32:19;;;;;;;8.20;6.95;;;;;;;24.63;49.94;101607.63;5033739;28;20356;-62
2023/10/03 11:34:48;;;;;;;8.20;6.80;;;;;;;24.65;50.04;101616.47;5033775;28;20076;-60
2023/10/03 11:37:31;;;;;;;9.32;7.03;;;;;;;24.64;50.04;101604.81;5033404;28;20053;-62
2023/10/03 11:40:07;;;;;;;8.55;7.65;;;;;;;24.65;50.00;101606.50;5033459;28;20080;-60
2023/10/03 11:42:52;;;;;;;7.80;6.85;;;;;;;24.66;50.18;101597.38;5033341;28;20046;-60
2023/10/03 11:45:27;;;;;;;9.48;7.47;;;;;;;24.68;50.02;101599.94;5033562;28;20052;-58